createdAt,value
2023-02-05T00:03:00.659Z,-0.88
2023-02-05T00:06:03.348Z,-0.83
2023-02-05T00:09:05.990Z,-0.81
2023-02-05T00:12:08.613Z,-0.91
2023-02-05T00:15:11.336Z,-1.07
2023-02-05T00:18:14.107Z,-1.20
2023-02-05T00:21:17.575Z,-1.11
2023-02-05T00:24:20.073Z,-1.08
2023-02-05T00:27:22.613Z,-0.92
2023-02-05T00:30:25.466Z,-0.96
2023-02-05T00:33:27.963Z,-0.99
2023-02-05T00:36:30.483Z,-1.00
2023-02-05T00:39:33.049Z,-1.06
2023-02-05T00:42:35.638Z,-1.10
2023-02-05T00:45:38.298Z,-1.13
2023-02-05T00:48:41.894Z,-1.04
2023-02-05T00:51:44.368Z,-1.05
2023-02-05T00:54:46.912Z,-0.91
2023-02-05T00:57:49.690Z,-0.90
2023-02-05T01:00:52.433Z,-0.93
2023-02-05T01:03:55.182Z,-0.92
2023-02-05T01:06:57.666Z,-0.92
2023-02-05T01:10:00.276Z,-0.83
2023-02-05T01:13:04.557Z,-0.78
2023-02-05T01:16:07.917Z,-0.81
2023-02-05T01:19:10.517Z,-0.88
2023-02-05T01:22:13.362Z,-0.86
2023-02-05T01:25:15.812Z,-1.02
2023-02-05T01:28:18.540Z,-1.04
2023-02-05T01:31:22.465Z,-1.10
2023-02-05T01:34:24.939Z,-1.04
2023-02-05T01:37:27.471Z,-1.07
2023-02-05T01:40:30.420Z,-1.13
2023-02-05T01:43:33.082Z,-1.16
2023-02-05T01:46:37.261Z,-1.21
2023-02-05T01:49:43.762Z,-1.25
2023-02-05T01:52:46.458Z,-1.25
2023-02-05T01:55:59.220Z,-1.28
2023-02-05T01:59:11.913Z,-1.29
2023-02-05T02:02:14.537Z,-1.33
2023-02-05T02:05:20.008Z,-1.34
2023-02-05T02:08:23.300Z,-1.36
2023-02-05T02:11:29.250Z,-1.41
2023-02-05T02:14:36.117Z,-1.50
2023-02-05T02:17:42.231Z,-1.51
2023-02-05T02:20:47.169Z,-1.66
2023-02-05T02:24:02.750Z,-1.75
2023-02-05T02:27:33.202Z,-1.96
2023-02-05T02:31:01.190Z,-2.15
2023-02-05T02:34:35.044Z,-2.09
2023-02-05T02:37:48.037Z,-2.05
2023-02-05T02:40:59.469Z,-1.95
2023-02-05T02:44:25.170Z,-1.87
2023-02-05T02:47:40.963Z,-1.88
2023-02-05T02:50:48.564Z,-1.83
2023-02-05T02:53:56.747Z,-1.79
2023-02-05T02:57:03.438Z,-1.76
2023-02-05T03:00:12.439Z,-1.71
2023-02-05T03:03:20.185Z,-1.54
2023-02-05T03:06:23.060Z,-1.45
2023-02-05T03:09:45.951Z,-1.27
2023-02-05T03:12:48.795Z,-1.27
2023-02-05T03:15:53.188Z,-1.18
2023-02-05T03:18:59.551Z,-1.13
2023-02-05T03:22:06.772Z,-1.11
2023-02-05T03:25:09.402Z,-1.08
2023-02-05T03:28:14.142Z,-1.05
2023-02-05T03:31:28.877Z,-1.12
2023-02-05T03:34:46.022Z,-1.09
2023-02-05T03:38:07.137Z,-1.08
2023-02-05T03:41:16.951Z,-1.01
2023-02-05T03:44:38.138Z,-1.02
2023-02-05T03:48:05.155Z,-1.03
2023-02-05T03:51:30.251Z,-1.01
2023-02-05T03:54:38.645Z,-1.29
2023-02-05T03:57:53.717Z,-1.23
2023-02-05T04:00:58.642Z,-1.27
2023-02-05T04:04:01.414Z,-1.28
2023-02-05T04:07:05.190Z,-1.32
2023-02-05T04:10:09.605Z,-1.32
2023-02-05T04:13:15.538Z,-1.33
2023-02-05T04:16:19.425Z,-1.22
2023-02-05T04:19:22.228Z,-1.06
2023-02-05T04:22:24.870Z,-1.04
2023-02-05T04:25:27.699Z,-1.09
2023-02-05T04:28:36.202Z,-1.06
2023-02-05T04:31:40.823Z,-1.04
2023-02-05T04:34:43.689Z,-1.05
2023-02-05T04:37:48.642Z,-1.04
2023-02-05T04:40:52.055Z,-1.06
2023-02-05T04:43:54.507Z,-1.00
2023-02-05T04:46:57.042Z,-0.90
2023-02-05T04:49:59.780Z,-0.86
2023-02-05T04:53:02.367Z,-0.90
2023-02-05T04:56:14.708Z,-0.90
2023-02-05T04:59:17.177Z,-0.92
2023-02-05T05:02:19.628Z,-1.02
2023-02-05T05:05:22.103Z,-0.93
2023-02-05T05:08:24.775Z,-0.95
2023-02-05T05:11:27.347Z,-0.94
2023-02-05T05:14:29.917Z,-0.93
2023-02-05T05:17:33.967Z,-1.00
2023-02-05T05:20:36.733Z,-1.05
2023-02-05T05:23:39.254Z,-0.97
2023-02-05T05:26:43.823Z,-1.08
2023-02-05T05:29:46.576Z,-1.00
2023-02-05T05:32:49.014Z,-0.99
2023-02-05T05:35:51.545Z,-1.01
2023-02-05T05:38:54.056Z,-0.94
2023-02-05T05:42:15.475Z,-0.98
2023-02-05T05:45:18.098Z,-1.02
2023-02-05T05:48:20.531Z,-1.09
2023-02-05T05:51:24.490Z,-1.19
2023-02-05T05:54:27.015Z,-1.07
2023-02-05T05:57:29.545Z,-1.13
2023-02-05T06:00:32.118Z,-1.10
2023-02-05T06:03:35.189Z,-1.05
2023-02-05T06:06:38.181Z,-0.94
2023-02-05T06:09:40.813Z,-0.94
2023-02-05T06:12:43.336Z,-1.02
2023-02-05T06:15:47.459Z,-1.12
2023-02-05T06:18:50.144Z,-1.25
2023-02-05T06:21:52.908Z,-1.33
2023-02-05T06:24:55.500Z,-1.27
2023-02-05T06:27:58.133Z,-1.23
2023-02-05T06:31:01.357Z,-1.08
2023-02-05T06:34:04.086Z,-0.94
2023-02-05T06:37:07.350Z,-0.90
2023-02-05T06:40:11.002Z,-0.92
2023-02-05T06:43:15.899Z,-0.94
2023-02-05T06:46:18.468Z,-1.02
2023-02-05T06:49:21.071Z,-1.05
2023-02-05T06:52:23.621Z,-1.05
2023-02-05T06:55:26.221Z,-0.92
2023-02-05T06:58:28.734Z,-0.87
2023-02-05T07:01:31.568Z,-0.79
2023-02-05T07:04:34.711Z,-0.92
2023-02-05T07:07:37.629Z,-0.99
2023-02-05T07:10:42.754Z,-1.12
2023-02-05T07:13:45.282Z,-1.21
2023-02-05T07:16:48.004Z,-1.31
2023-02-05T07:19:50.903Z,-1.37
2023-02-05T07:22:53.381Z,-1.37
2023-02-05T07:25:55.988Z,-1.43
2023-02-05T07:28:58.610Z,-1.54
2023-02-05T07:32:01.114Z,-1.66
2023-02-05T07:35:03.937Z,-1.73
2023-02-05T07:38:06.486Z,-1.76
2023-02-05T07:41:11.600Z,-1.79
2023-02-05T07:44:14.162Z,-1.86
2023-02-05T07:47:16.742Z,-1.76
2023-02-05T07:50:20.311Z,-1.68
2023-02-05T07:53:22.813Z,-1.60
2023-02-05T07:56:25.876Z,-1.59
2023-02-05T07:59:29.095Z,-1.51
2023-02-05T08:02:31.789Z,-1.46
2023-02-05T08:05:34.631Z,-1.39
2023-02-05T08:08:37.335Z,-1.41
2023-02-05T08:11:39.915Z,-1.37
2023-02-05T08:14:42.481Z,-1.37
2023-02-05T08:17:44.982Z,-1.39
2023-02-05T08:20:47.626Z,-1.28
2023-02-05T08:23:50.091Z,-1.25
2023-02-05T08:26:52.596Z,-1.22
2023-02-05T08:29:55.195Z,-1.06
2023-02-05T08:32:57.775Z,-0.96
2023-02-05T08:36:00.376Z,-0.93
2023-02-05T08:39:02.852Z,-0.90
2023-02-05T08:42:05.617Z,-0.85
2023-02-05T08:45:09.145Z,-0.79
2023-02-05T08:48:11.646Z,-0.75
2023-02-05T08:51:15.501Z,-0.80
2023-02-05T08:54:18.384Z,-0.66
2023-02-05T08:57:20.870Z,-0.62
2023-02-05T09:00:23.822Z,-0.58
2023-02-05T09:03:26.793Z,-0.53
2023-02-05T09:06:29.294Z,-0.52
2023-02-05T09:09:32.912Z,-0.48
2023-02-05T09:12:35.593Z,-0.40
2023-02-05T09:15:48.411Z,-0.34
2023-02-05T09:18:51.210Z,-0.31
2023-02-05T09:21:54.266Z,-0.15
2023-02-05T09:24:56.892Z,-0.09
2023-02-05T09:27:59.808Z,0.21
2023-02-05T09:31:08.566Z,0.33
2023-02-05T09:34:11.184Z,0.43
2023-02-05T09:37:13.691Z,0.51
2023-02-05T09:40:23.437Z,0.60
2023-02-05T09:43:43.988Z,0.81
2023-02-05T09:46:52.067Z,0.89
2023-02-05T09:50:15.223Z,1.06
2023-02-05T09:53:21.487Z,1.15
2023-02-05T09:56:27.193Z,1.39
2023-02-05T09:59:31.505Z,1.54
2023-02-05T10:02:49.970Z,1.38
2023-02-05T10:05:52.377Z,1.11
2023-02-05T10:09:09.861Z,1.22
2023-02-05T10:12:43.626Z,1.39
2023-02-05T10:16:03.329Z,1.59
2023-02-05T10:19:44.128Z,1.51
2023-02-05T10:22:49.586Z,1.41
2023-02-05T10:26:01.854Z,1.38
2023-02-05T10:29:47.256Z,1.33
2023-02-05T10:32:58.688Z,1.21
2023-02-05T10:36:06.223Z,0.78
2023-02-05T10:39:17.390Z,0.67
2023-02-05T10:42:42.849Z,0.51
2023-02-05T10:45:45.505Z,0.57
2023-02-05T10:48:57.363Z,0.81
2023-02-05T10:51:59.778Z,0.73
2023-02-05T10:55:02.259Z,0.55
2023-02-05T10:58:38.855Z,0.49
2023-02-05T11:01:42.195Z,0.58
2023-02-05T11:05:01.054Z,0.65
2023-02-05T11:08:04.536Z,0.86
2023-02-05T11:11:18.042Z,0.87
2023-02-05T11:14:43.792Z,0.74
2023-02-05T11:17:52.349Z,0.75
2023-02-05T11:21:01.005Z,0.71
2023-02-05T11:24:03.686Z,0.89
2023-02-05T11:27:31.797Z,1.08
2023-02-05T11:30:53.225Z,1.07
2023-02-05T11:34:07.996Z,1.01
2023-02-05T11:37:17.195Z,0.82
2023-02-05T11:40:22.234Z,0.78
2023-02-05T11:43:32.389Z,0.99
2023-02-05T11:46:44.296Z,0.97
2023-02-05T11:49:51.319Z,1.10
2023-02-05T11:53:09.473Z,1.30
2023-02-05T11:56:21.480Z,1.39
2023-02-05T11:59:24.641Z,1.40
2023-02-05T12:02:29.798Z,1.44
2023-02-05T12:05:40.361Z,1.36
2023-02-05T12:08:49.526Z,1.42
2023-02-05T12:12:11.355Z,1.44
2023-02-05T12:15:59.880Z,1.27
2023-02-05T12:19:50.068Z,1.60
2023-02-05T12:23:18.951Z,1.43
2023-02-05T12:26:35.121Z,1.11
2023-02-05T12:29:58.092Z,1.30
2023-02-05T12:33:19.393Z,1.51
2023-02-05T12:37:06.447Z,1.73
2023-02-05T12:40:37.039Z,1.98
2023-02-05T12:43:46.544Z,2.16
2023-02-05T12:47:01.039Z,2.27
2023-02-05T12:50:10.839Z,2.21
2023-02-05T12:53:44.080Z,2.25
2023-02-05T12:57:51.170Z,2.54
2023-02-05T13:01:00.389Z,2.83
2023-02-05T13:04:04.763Z,3.05
2023-02-05T13:07:18.538Z,3.77
2023-02-05T13:10:24.991Z,4.32
2023-02-05T13:13:33.297Z,4.17
2023-02-05T13:16:42.125Z,4.29
2023-02-05T13:19:51.544Z,4.13
2023-02-05T13:23:16.384Z,4.11
2023-02-05T13:26:25.166Z,4.38
2023-02-05T13:29:32.214Z,4.24
2023-02-05T13:32:36.749Z,4.19
2023-02-05T13:36:24.137Z,4.46
2023-02-05T13:39:34.642Z,4.55
2023-02-05T13:43:16.241Z,5.72
2023-02-05T13:46:48.009Z,5.56
2023-02-05T13:49:50.579Z,5.36
2023-02-05T13:52:53.221Z,5.47
2023-02-05T13:56:22.208Z,6.10
2023-02-05T13:59:34.344Z,5.04
2023-02-05T14:02:43.424Z,5.24
2023-02-05T14:05:46.204Z,5.87
2023-02-05T14:09:00.208Z,5.87
2023-02-05T14:12:07.710Z,5.99
2023-02-05T14:15:20.105Z,6.26
2023-02-05T14:18:40.691Z,6.63
2023-02-05T14:21:45.998Z,6.24
2023-02-05T14:24:50.471Z,6.05
2023-02-05T14:27:55.507Z,6.22
2023-02-05T14:31:00.741Z,6.30
2023-02-05T14:34:44.726Z,5.95
2023-02-05T14:37:50.314Z,5.71
2023-02-05T14:41:16.128Z,5.93
2023-02-05T14:44:29.109Z,5.65
2023-02-05T14:47:35.804Z,5.84
2023-02-05T14:50:40.657Z,5.69
2023-02-05T14:53:54.609Z,5.72
2023-02-05T14:57:21.074Z,5.33
2023-02-05T15:00:31.946Z,5.12
2023-02-05T15:03:40.393Z,4.40
2023-02-05T15:06:44.560Z,4.02
2023-02-05T15:09:57.532Z,3.51
2023-02-05T15:13:15.436Z,3.28
2023-02-05T15:16:21.503Z,2.94
2023-02-05T15:19:24.310Z,2.67
2023-02-05T15:22:37.243Z,2.13
2023-02-05T15:25:45.321Z,1.77
2023-02-05T15:29:01.637Z,1.58
2023-02-05T15:32:16.618Z,1.47
2023-02-05T15:35:22.735Z,1.41
2023-02-05T15:38:43.111Z,1.16
2023-02-05T15:41:47.394Z,0.79
2023-02-05T15:44:49.924Z,0.63
2023-02-05T15:48:13.772Z,0.34
2023-02-05T15:51:28.765Z,0.17
2023-02-05T15:54:35.980Z,0.02
2023-02-05T15:57:39.131Z,-0.11
2023-02-05T16:00:45.731Z,-0.21
2023-02-05T16:03:48.603Z,-0.25
2023-02-05T16:06:51.461Z,-0.47
2023-02-05T16:09:57.899Z,-0.65
2023-02-05T16:13:01.325Z,-0.91
2023-02-05T16:16:15.312Z,-1.02
2023-02-05T16:19:25.134Z,-1.15
2023-02-05T16:22:36.699Z,-1.13
2023-02-05T16:25:45.930Z,-1.28
2023-02-05T16:28:54.425Z,-1.36
2023-02-05T16:32:05.448Z,-1.39
2023-02-05T16:35:22.818Z,-1.52
2023-02-05T16:38:28.232Z,-1.53
2023-02-05T16:41:40.377Z,-1.61
2023-02-05T16:44:47.291Z,-1.67
2023-02-05T16:48:21.739Z,-1.82
2023-02-05T16:51:53.638Z,-1.90
2023-02-05T16:54:58.119Z,-1.88
2023-02-05T16:58:06.393Z,-1.85
2023-02-05T17:01:09.810Z,-1.79
2023-02-05T17:04:26.831Z,-1.75
2023-02-05T17:07:30.800Z,-1.79
2023-02-05T17:10:54.751Z,-1.83
2023-02-05T17:14:31.264Z,-1.92
2023-02-05T17:17:48.474Z,-2.07
2023-02-05T17:20:51.467Z,-2.13
2023-02-05T17:23:57.142Z,-2.26
2023-02-05T17:26:59.928Z,-2.27
2023-02-05T17:30:05.585Z,-2.25
2023-02-05T17:33:09.968Z,-2.21
2023-02-05T17:36:17.566Z,-2.21
2023-02-05T17:39:20.354Z,-2.19
2023-02-05T17:42:25.705Z,-2.18
2023-02-05T17:45:32.933Z,-1.91
2023-02-05T17:48:35.808Z,-1.81
2023-02-05T17:51:41.754Z,-1.71
2023-02-05T17:54:47.641Z,-1.70
2023-02-05T17:57:50.114Z,-1.71
2023-02-05T18:00:53.338Z,-1.78
2023-02-05T18:03:56.144Z,-1.91
2023-02-05T18:06:59.020Z,-1.95
2023-02-05T18:10:01.510Z,-2.04
2023-02-05T18:13:04.745Z,-2.15
2023-02-05T18:16:08.415Z,-2.27
2023-02-05T18:19:12.243Z,-2.33
2023-02-05T18:22:15.547Z,-2.33
2023-02-05T18:25:18.733Z,-2.36
2023-02-05T18:28:21.489Z,-2.34
2023-02-05T18:31:24.862Z,-2.38
2023-02-05T18:34:27.840Z,-2.47
2023-02-05T18:37:30.634Z,-2.49
2023-02-05T18:40:33.631Z,-2.52
2023-02-05T18:43:37.260Z,-2.60
2023-02-05T18:46:39.864Z,-2.70
2023-02-05T18:49:42.669Z,-2.71
2023-02-05T18:52:45.364Z,-2.75
2023-02-05T18:56:03.996Z,-2.69
2023-02-05T18:59:08.632Z,-2.76
2023-02-05T19:02:11.988Z,-2.81
2023-02-05T19:05:14.670Z,-2.88
2023-02-05T19:08:17.723Z,-2.93
2023-02-05T19:11:24.280Z,-2.95
2023-02-05T19:14:27.628Z,-3.08
2023-02-05T19:17:30.425Z,-3.17
2023-02-05T19:20:35.030Z,-3.16
2023-02-05T19:23:38.927Z,-3.27
2023-02-05T19:26:45.398Z,-3.31
2023-02-05T19:29:48.300Z,-3.33
2023-02-05T19:32:50.978Z,-3.06
2023-02-05T19:35:54.791Z,-3.04
2023-02-05T19:39:00.570Z,-3.08
2023-02-05T19:42:03.417Z,-3.20
2023-02-05T19:45:06.736Z,-3.31
2023-02-05T19:48:09.490Z,-3.42
2023-02-05T19:51:13.651Z,-3.47
2023-02-05T19:54:20.594Z,-3.43
2023-02-05T19:57:25.038Z,-3.51
2023-02-05T20:00:28.670Z,-3.50
2023-02-05T20:03:32.626Z,-3.49
2023-02-05T20:06:36.563Z,-3.51
2023-02-05T20:09:39.353Z,-3.57
2023-02-05T20:12:42.326Z,-3.69
2023-02-05T20:15:45.691Z,-3.72
2023-02-05T20:18:57.796Z,-3.71
2023-02-05T20:22:00.357Z,-3.77
2023-02-05T20:25:03.284Z,-3.78
2023-02-05T20:28:06.463Z,-3.80
2023-02-05T20:31:27.453Z,-3.79
2023-02-05T20:34:31.231Z,-3.88
2023-02-05T20:37:36.862Z,-3.94
2023-02-05T20:40:39.625Z,-3.92
2023-02-05T20:43:42.250Z,-4.01
2023-02-05T20:46:45.505Z,-4.03
2023-02-05T20:49:48.480Z,-4.12
2023-02-05T20:52:51.339Z,-4.16
2023-02-05T20:56:00.576Z,-4.25
2023-02-05T20:59:05.810Z,-4.29
2023-02-05T21:02:10.519Z,-4.27
2023-02-05T21:05:13.279Z,-4.33
2023-02-05T21:08:15.964Z,-4.38
2023-02-05T21:11:20.145Z,-4.41
2023-02-05T21:14:23.569Z,-4.44
2023-02-05T21:17:26.202Z,-4.51
2023-02-05T21:20:30.245Z,-4.53
2023-02-05T21:23:33.700Z,-4.60
2023-02-05T21:26:40.552Z,-4.59
2023-02-05T21:29:43.663Z,-4.66
2023-02-05T21:32:46.237Z,-4.73
2023-02-05T21:35:48.662Z,-4.76
2023-02-05T21:38:52.463Z,-4.78
2023-02-05T21:41:55.301Z,-4.83
2023-02-05T21:44:57.992Z,-4.90
2023-02-05T21:48:00.701Z,-4.92
2023-02-05T21:51:07.925Z,-4.84
2023-02-05T21:54:11.084Z,-4.83
2023-02-05T21:57:13.533Z,-4.86
2023-02-05T22:00:20.764Z,-4.98
2023-02-05T22:03:23.311Z,-5.02
2023-02-05T22:06:28.776Z,-5.09
2023-02-05T22:09:31.312Z,-5.14
2023-02-05T22:12:34.051Z,-5.19
2023-02-05T22:15:36.910Z,-5.19
2023-02-05T22:18:40.203Z,-5.14
2023-02-05T22:21:44.024Z,-5.22
2023-02-05T22:24:46.603Z,-5.25
2023-02-05T22:27:49.215Z,-5.27
2023-02-05T22:30:58.134Z,-5.28
2023-02-05T22:34:01.115Z,-5.29
2023-02-05T22:37:03.604Z,-5.35
2023-02-05T22:40:06.942Z,-5.39
2023-02-05T22:43:11.652Z,-5.38
2023-02-05T22:46:21.601Z,-5.36
2023-02-05T22:49:24.113Z,-5.42
2023-02-05T22:52:26.739Z,-5.46
2023-02-05T22:55:29.195Z,-5.52
2023-02-05T22:58:32.338Z,-5.54
2023-02-05T23:01:36.652Z,-5.55
2023-02-05T23:04:39.265Z,-5.52
2023-02-05T23:07:41.759Z,-5.54
2023-02-05T23:10:46.012Z,-5.47
2023-02-05T23:13:49.233Z,-5.55
2023-02-05T23:16:51.747Z,-5.66
2023-02-05T23:19:54.592Z,-5.60
2023-02-05T23:22:57.482Z,-5.63
2023-02-05T23:26:25.390Z,-5.66
2023-02-05T23:29:28.142Z,-5.69
2023-02-05T23:32:30.642Z,-5.64
2023-02-05T23:35:33.581Z,-5.66
2023-02-05T23:38:37.393Z,-5.69
2023-02-05T23:41:40.331Z,-5.40
2023-02-05T23:44:42.915Z,-5.31
2023-02-05T23:47:45.522Z,-5.15
2023-02-05T23:50:55.021Z,-5.13
2023-02-05T23:53:57.771Z,-5.09
2023-02-05T23:57:00.277Z,-5.13
